首页
METAR-TAF:

METAR-TAF

机场 :

Woensdrecht, 荷兰

纬度: 51-27N, 经度: 004-20E, 海拔: 20米

当前天气观测

该预报发布于14分钟前的07:17 UTC
风速3节,风向东转东南,在北转东北之间变化
温度 -2°C
湿度 93%
气压 1011 hPa
能見度: 7000
少量云层高于3700英尺
轻雾

METAR: EHWO 170717Z AUTO 12003KT 020V100 7000 BR FEW037 M02/M03 Q1011 WHT

时间: 08:31 (07:31 UTC)


TAF: 丢失

超过4000个机场的气象观测和天气预报(METAR&TAF报告)。

可查询的气象台以黄色和红色小点在地图上表示。

将鼠标移到小点上方,可查看气象台名称。

然后点击查看天气观测和预报。

如需切换地图:点击带黑十字的绿色按钮放大地图;点击带横线的绿色按钮缩小地图;或者点击绿色箭头查看邻近地区的地图。


METAR-TAF: